sensor_id;sensor_type;location;lat;lon;timestamp;P1;durP1;ratioP1;P2;durP2;ratioP2
11572;SDS011;5842;52.426;4.886;2023-08-06T00:00:29;19.40;;;16.33;;
11572;SDS011;5842;52.426;4.886;2023-08-06T00:03:04;19.95;;;16.73;;
11572;SDS011;5842;52.426;4.886;2023-08-06T00:05:37;20.50;;;17.27;;
11572;SDS011;5842;52.426;4.886;2023-08-06T00:08:14;21.10;;;16.95;;
11572;SDS011;5842;52.426;4.886;2023-08-06T00:10:47;19.75;;;15.98;;
11572;SDS011;5842;52.426;4.886;2023-08-06T00:13:20;21.75;;;17.40;;
11572;SDS011;5842;52.426;4.886;2023-08-06T00:15:56;24.25;;;18.58;;
11572;SDS011;5842;52.426;4.886;2023-08-06T00:18:42;24.70;;;19.80;;
11572;SDS011;5842;52.426;4.886;2023-08-06T00:21:16;24.50;;;20.48;;
11572;SDS011;5842;52.426;4.886;2023-08-06T00:23:49;24.60;;;20.80;;
11572;SDS011;5842;52.426;4.886;2023-08-06T00:26:22;23.00;;;19.15;;
11572;SDS011;5842;52.426;4.886;2023-08-06T00:28:55;25.27;;;20.92;;
11572;SDS011;5842;52.426;4.886;2023-08-06T00:31:27;28.83;;;22.50;;
11572;SDS011;5842;52.426;4.886;2023-08-06T00:34:03;24.25;;;20.83;;
11572;SDS011;5842;52.426;4.886;2023-08-06T00:36:36;28.30;;;22.40;;
11572;SDS011;5842;52.426;4.886;2023-08-06T00:39:10;28.67;;;22.92;;
11572;SDS011;5842;52.426;4.886;2023-08-06T00:41:43;28.75;;;22.50;;
11572;SDS011;5842;52.426;4.886;2023-08-06T00:44:14;29.08;;;23.15;;
11572;SDS011;5842;52.426;4.886;2023-08-06T00:46:47;28.42;;;22.48;;
11572;SDS011;5842;52.426;4.886;2023-08-06T00:49:22;29.13;;;22.33;;
11572;SDS011;5842;52.426;4.886;2023-08-06T00:51:55;25.80;;;21.13;;
11572;SDS011;5842;52.426;4.886;2023-08-06T00:54:32;26.27;;;20.27;;
11572;SDS011;5842;52.426;4.886;2023-08-06T00:57:04;26.33;;;20.05;;
11572;SDS011;5842;52.426;4.886;2023-08-06T00:59:39;27.20;;;20.60;;
11572;SDS011;5842;52.426;4.886;2023-08-06T01:02:12;26.20;;;20.85;;
11572;SDS011;5842;52.426;4.886;2023-08-06T01:04:47;27.30;;;21.23;;
11572;SDS011;5842;52.426;4.886;2023-08-06T01:07:21;25.93;;;20.10;;
11572;SDS011;5842;52.426;4.886;2023-08-06T01:10:00;25.40;;;20.15;;
11572;SDS011;5842;52.426;4.886;2023-08-06T01:12:40;24.40;;;20.55;;
11572;SDS011;5842;52.426;4.886;2023-08-06T01:15:17;23.75;;;19.48;;
11572;SDS011;5842;52.426;4.886;2023-08-06T01:17:51;24.17;;;19.80;;
11572;SDS011;5842;52.426;4.886;2023-08-06T01:20:30;24.33;;;19.87;;
11572;SDS011;5842;52.426;4.886;2023-08-06T01:23:03;23.55;;;19.63;;
11572;SDS011;5842;52.426;4.886;2023-08-06T01:25:35;24.98;;;19.98;;
11572;SDS011;5842;52.426;4.886;2023-08-06T01:28:14;22.10;;;18.13;;
11572;SDS011;5842;52.426;4.886;2023-08-06T01:30:48;20.48;;;17.48;;
11572;SDS011;5842;52.426;4.886;2023-08-06T01:33:22;19.30;;;16.67;;
11572;SDS011;5842;52.426;4.886;2023-08-06T01:35:58;18.60;;;15.30;;
11572;SDS011;5842;52.426;4.886;2023-08-06T01:38:30;19.38;;;15.90;;
11572;SDS011;5842;52.426;4.886;2023-08-06T01:41:03;19.67;;;16.00;;
11572;SDS011;5842;52.426;4.886;2023-08-06T01:43:35;20.08;;;16.90;;
11572;SDS011;5842;52.426;4.886;2023-08-06T01:46:08;19.63;;;16.60;;
11572;SDS011;5842;52.426;4.886;2023-08-06T01:48:41;18.70;;;16.10;;
11572;SDS011;5842;52.426;4.886;2023-08-06T01:51:16;19.38;;;16.02;;
11572;SDS011;5842;52.426;4.886;2023-08-06T01:53:49;20.35;;;16.20;;
11572;SDS011;5842;52.426;4.886;2023-08-06T01:56:26;19.23;;;16.08;;
11572;SDS011;5842;52.426;4.886;2023-08-06T01:59:03;20.60;;;16.23;;
11572;SDS011;5842;52.426;4.886;2023-08-06T02:01:36;21.30;;;16.38;;
11572;SDS011;5842;52.426;4.886;2023-08-06T02:04:08;20.35;;;16.75;;
11572;SDS011;5842;52.426;4.886;2023-08-06T02:06:45;19.50;;;16.50;;
11572;SDS011;5842;52.426;4.886;2023-08-06T02:09:21;19.05;;;15.70;;
11572;SDS011;5842;52.426;4.886;2023-08-06T02:11:54;18.33;;;15.40;;
11572;SDS011;5842;52.426;4.886;2023-08-06T02:14:27;17.17;;;14.57;;
11572;SDS011;5842;52.426;4.886;2023-08-06T02:17:01;16.02;;;14.32;;
11572;SDS011;5842;52.426;4.886;2023-08-06T02:19:34;15.55;;;13.80;;
11572;SDS011;5842;52.426;4.886;2023-08-06T02:22:11;15.00;;;12.95;;
11572;SDS011;5842;52.426;4.886;2023-08-06T02:24:44;16.47;;;12.93;;
11572;SDS011;5842;52.426;4.886;2023-08-06T02:27:17;15.75;;;12.88;;
11572;SDS011;5842;52.426;4.886;2023-08-06T02:29:50;16.05;;;12.27;;
11572;SDS011;5842;52.426;4.886;2023-08-06T02:32:22;14.18;;;11.30;;
11572;SDS011;5842;52.426;4.886;2023-08-06T02:34:59;13.17;;;10.73;;
11572;SDS011;5842;52.426;4.886;2023-08-06T02:37:36;11.60;;;10.40;;
11572;SDS011;5842;52.426;4.886;2023-08-06T02:40:09;12.77;;;10.40;;
11572;SDS011;5842;52.426;4.886;2023-08-06T02:42:43;10.98;;;9.77;;
11572;SDS011;5842;52.426;4.886;2023-08-06T02:45:15;10.57;;;9.27;;
11572;SDS011;5842;52.426;4.886;2023-08-06T02:47:49;11.27;;;9.30;;
11572;SDS011;5842;52.426;4.886;2023-08-06T02:50:22;11.35;;;10.05;;
11572;SDS011;5842;52.426;4.886;2023-08-06T02:52:58;12.65;;;10.15;;
11572;SDS011;5842;52.426;4.886;2023-08-06T02:55:31;12.52;;;9.98;;
11572;SDS011;5842;52.426;4.886;2023-08-06T02:58:03;12.05;;;9.77;;
11572;SDS011;5842;52.426;4.886;2023-08-06T03:00:36;11.07;;;9.10;;
11572;SDS011;5842;52.426;4.886;2023-08-06T03:03:09;10.05;;;8.43;;
11572;SDS011;5842;52.426;4.886;2023-08-06T03:05:41;9.23;;;8.32;;
11572;SDS011;5842;52.426;4.886;2023-08-06T03:08:26;9.63;;;8.10;;
11572;SDS011;5842;52.426;4.886;2023-08-06T03:10:58;8.80;;;7.80;;
11572;SDS011;5842;52.426;4.886;2023-08-06T03:13:31;9.00;;;6.85;;
11572;SDS011;5842;52.426;4.886;2023-08-06T03:16:04;8.43;;;6.88;;
11572;SDS011;5842;52.426;4.886;2023-08-06T03:18:37;8.63;;;7.43;;
11572;SDS011;5842;52.426;4.886;2023-08-06T03:21:15;11.95;;;8.82;;
11572;SDS011;5842;52.426;4.886;2023-08-06T03:23:51;9.70;;;8.43;;
11572;SDS011;5842;52.426;4.886;2023-08-06T03:26:23;9.05;;;7.82;;
11572;SDS011;5842;52.426;4.886;2023-08-06T03:28:56;8.43;;;7.20;;
11572;SDS011;5842;52.426;4.886;2023-08-06T03:31:28;9.07;;;6.80;;
11572;SDS011;5842;52.426;4.886;2023-08-06T03:34:01;12.20;;;7.53;;
11572;SDS011;5842;52.426;4.886;2023-08-06T03:36:34;8.18;;;6.90;;
11572;SDS011;5842;52.426;4.886;2023-08-06T03:39:10;8.77;;;7.53;;
11572;SDS011;5842;52.426;4.886;2023-08-06T03:41:44;12.73;;;7.90;;
11572;SDS011;5842;52.426;4.886;2023-08-06T03:44:18;10.82;;;9.38;;
11572;SDS011;5842;52.426;4.886;2023-08-06T03:46:53;15.43;;;11.40;;
11572;SDS011;5842;52.426;4.886;2023-08-06T03:49:27;15.18;;;12.20;;
11572;SDS011;5842;52.426;4.886;2023-08-06T03:52:00;15.40;;;11.70;;
11572;SDS011;5842;52.426;4.886;2023-08-06T03:54:40;15.20;;;10.80;;
11572;SDS011;5842;52.426;4.886;2023-08-06T03:57:14;11.70;;;9.88;;
11572;SDS011;5842;52.426;4.886;2023-08-06T03:59:47;13.48;;;10.60;;
11572;SDS011;5842;52.426;4.886;2023-08-06T04:02:21;12.30;;;9.90;;
11572;SDS011;5842;52.426;4.886;2023-08-06T04:04:54;12.95;;;10.40;;
11572;SDS011;5842;52.426;4.886;2023-08-06T04:07:27;12.50;;;10.90;;
11572;SDS011;5842;52.426;4.886;2023-08-06T04:10:04;11.13;;;10.02;;
11572;SDS011;5842;52.426;4.886;2023-08-06T04:12:36;12.73;;;10.60;;
11572;SDS011;5842;52.426;4.886;2023-08-06T04:15:10;12.68;;;10.88;;
11572;SDS011;5842;52.426;4.886;2023-08-06T04:17:43;15.23;;;11.10;;
11572;SDS011;5842;52.426;4.886;2023-08-06T04:20:17;12.50;;;10.85;;
11572;SDS011;5842;52.426;4.886;2023-08-06T04:22:51;11.23;;;9.63;;
11572;SDS011;5842;52.426;4.886;2023-08-06T04:25:28;14.38;;;8.98;;
11572;SDS011;5842;52.426;4.886;2023-08-06T04:28:02;7.68;;;6.82;;
11572;SDS011;5842;52.426;4.886;2023-08-06T04:30:36;7.15;;;5.80;;
11572;SDS011;5842;52.426;4.886;2023-08-06T04:33:10;7.05;;;5.00;;
11572;SDS011;5842;52.426;4.886;2023-08-06T04:35:47;10.60;;;5.40;;
11572;SDS011;5842;52.426;4.886;2023-08-06T04:38:20;6.32;;;5.60;;
11572;SDS011;5842;52.426;4.886;2023-08-06T04:40:58;8.50;;;6.25;;
11572;SDS011;5842;52.426;4.886;2023-08-06T04:43:31;10.48;;;6.05;;
11572;SDS011;5842;52.426;4.886;2023-08-06T04:46:05;8.88;;;6.15;;
11572;SDS011;5842;52.426;4.886;2023-08-06T04:48:37;7.50;;;5.30;;
11572;SDS011;5842;52.426;4.886;2023-08-06T04:51:11;9.35;;;5.90;;
11572;SDS011;5842;52.426;4.886;2023-08-06T04:53:44;7.80;;;5.72;;
11572;SDS011;5842;52.426;4.886;2023-08-06T04:56:21;9.85;;;6.50;;
11572;SDS011;5842;52.426;4.886;2023-08-06T04:58:53;10.32;;;6.65;;
11572;SDS011;5842;52.426;4.886;2023-08-06T05:01:27;9.82;;;8.10;;
11572;SDS011;5842;52.426;4.886;2023-08-06T05:04:01;10.97;;;8.53;;
11572;SDS011;5842;52.426;4.886;2023-08-06T05:06:37;13.05;;;9.90;;
11572;SDS011;5842;52.426;4.886;2023-08-06T05:09:11;13.25;;;9.90;;
11572;SDS011;5842;52.426;4.886;2023-08-06T05:11:48;16.42;;;12.52;;
11572;SDS011;5842;52.426;4.886;2023-08-06T05:14:22;17.00;;;13.00;;
11572;SDS011;5842;52.426;4.886;2023-08-06T05:16:56;20.65;;;13.18;;
11572;SDS011;5842;52.426;4.886;2023-08-06T05:19:31;18.50;;;13.85;;
11572;SDS011;5842;52.426;4.886;2023-08-06T05:22:05;19.30;;;14.90;;
11572;SDS011;5842;52.426;4.886;2023-08-06T05:24:39;22.17;;;15.57;;
11572;SDS011;5842;52.426;4.886;2023-08-06T05:27:17;22.27;;;16.48;;
11572;SDS011;5842;52.426;4.886;2023-08-06T05:29:54;21.70;;;17.35;;
11572;SDS011;5842;52.426;4.886;2023-08-06T05:32:27;23.10;;;18.47;;
11572;SDS011;5842;52.426;4.886;2023-08-06T05:35:01;21.08;;;16.92;;
11572;SDS011;5842;52.426;4.886;2023-08-06T05:37:35;20.40;;;16.88;;
11572;SDS011;5842;52.426;4.886;2023-08-06T05:40:13;18.77;;;16.20;;
11572;SDS011;5842;52.426;4.886;2023-08-06T05:42:50;19.30;;;15.48;;
11572;SDS011;5842;52.426;4.886;2023-08-06T05:45:24;17.65;;;14.82;;
11572;SDS011;5842;52.426;4.886;2023-08-06T05:47:57;18.23;;;14.17;;
11572;SDS011;5842;52.426;4.886;2023-08-06T05:50:31;15.43;;;13.65;;
11572;SDS011;5842;52.426;4.886;2023-08-06T05:53:04;17.00;;;14.15;;
11572;SDS011;5842;52.426;4.886;2023-08-06T05:55:38;15.30;;;13.65;;
11572;SDS011;5842;52.426;4.886;2023-08-06T05:58:15;17.45;;;15.00;;
11572;SDS011;5842;52.426;4.886;2023-08-06T06:00:47;17.10;;;15.30;;
11572;SDS011;5842;52.426;4.886;2023-08-06T06:03:20;15.10;;;13.60;;
11572;SDS011;5842;52.426;4.886;2023-08-06T06:05:52;13.98;;;12.45;;
11572;SDS011;5842;52.426;4.886;2023-08-06T06:08:26;13.10;;;11.60;;
11572;SDS011;5842;52.426;4.886;2023-08-06T06:11:05;12.82;;;11.43;;
11572;SDS011;5842;52.426;4.886;2023-08-06T06:13:40;12.93;;;11.63;;
11572;SDS011;5842;52.426;4.886;2023-08-06T06:16:13;12.88;;;11.57;;
11572;SDS011;5842;52.426;4.886;2023-08-06T06:18:46;15.02;;;11.50;;
11572;SDS011;5842;52.426;4.886;2023-08-06T06:21:18;13.15;;;9.35;;
11572;SDS011;5842;52.426;4.886;2023-08-06T06:23:51;8.98;;;7.25;;
11572;SDS011;5842;52.426;4.886;2023-08-06T06:26:23;11.90;;;7.70;;
11572;SDS011;5842;52.426;4.886;2023-08-06T06:28:59;8.30;;;7.20;;
11572;SDS011;5842;52.426;4.886;2023-08-06T06:31:32;11.77;;;7.40;;
11572;SDS011;5842;52.426;4.886;2023-08-06T06:34:05;9.63;;;7.22;;
11572;SDS011;5842;52.426;4.886;2023-08-06T06:36:38;9.68;;;7.63;;
11572;SDS011;5842;52.426;4.886;2023-08-06T06:39:10;10.02;;;7.57;;
11572;SDS011;5842;52.426;4.886;2023-08-06T06:41:43;10.47;;;7.80;;
11572;SDS011;5842;52.426;4.886;2023-08-06T06:44:18;9.07;;;7.85;;
11572;SDS011;5842;52.426;4.886;2023-08-06T06:46:50;9.23;;;7.07;;
11572;SDS011;5842;52.426;4.886;2023-08-06T06:49:23;11.70;;;7.50;;
11572;SDS011;5842;52.426;4.886;2023-08-06T06:51:56;10.20;;;8.00;;
11572;SDS011;5842;52.426;4.886;2023-08-06T06:54:29;10.63;;;8.20;;
11572;SDS011;5842;52.426;4.886;2023-08-06T06:57:02;10.33;;;8.27;;
11572;SDS011;5842;52.426;4.886;2023-08-06T06:59:38;10.35;;;8.45;;
11572;SDS011;5842;52.426;4.886;2023-08-06T07:02:11;10.55;;;9.00;;
11572;SDS011;5842;52.426;4.886;2023-08-06T07:04:44;9.80;;;8.45;;
11572;SDS011;5842;52.426;4.886;2023-08-06T07:07:16;11.50;;;9.38;;
11572;SDS011;5842;52.426;4.886;2023-08-06T07:09:49;12.35;;;10.27;;
11572;SDS011;5842;52.426;4.886;2023-08-06T07:12:21;12.40;;;10.10;;
11572;SDS011;5842;52.426;4.886;2023-08-06T07:14:58;13.05;;;10.13;;
11572;SDS011;5842;52.426;4.886;2023-08-06T07:17:31;15.55;;;10.65;;
11572;SDS011;5842;52.426;4.886;2023-08-06T07:20:03;14.95;;;10.60;;
11572;SDS011;5842;52.426;4.886;2023-08-06T07:22:39;12.13;;;10.57;;
11572;SDS011;5842;52.426;4.886;2023-08-06T07:25:11;13.48;;;11.02;;
11572;SDS011;5842;52.426;4.886;2023-08-06T07:44:38;20.33;;;15.02;;
11572;SDS011;5842;52.426;4.886;2023-08-06T07:47:13;20.45;;;15.05;;
11572;SDS011;5842;52.426;4.886;2023-08-06T07:49:46;17.52;;;14.10;;
11572;SDS011;5842;52.426;4.886;2023-08-06T07:52:20;15.88;;;13.32;;
11572;SDS011;5842;52.426;4.886;2023-08-06T07:54:54;15.77;;;13.18;;
11572;SDS011;5842;52.426;4.886;2023-08-06T07:57:26;16.03;;;12.53;;
11572;SDS011;5842;52.426;4.886;2023-08-06T08:22:44;14.70;;;10.55;;
11572;SDS011;5842;52.426;4.886;2023-08-06T08:25:17;13.63;;;10.63;;
11572;SDS011;5842;52.426;4.886;2023-08-06T08:27:49;12.10;;;10.00;;
11572;SDS011;5842;52.426;4.886;2023-08-06T08:35:23;13.35;;;9.75;;
11572;SDS011;5842;52.426;4.886;2023-08-06T08:38:00;12.02;;;8.77;;
11572;SDS011;5842;52.426;4.886;2023-08-06T08:40:33;10.82;;;8.27;;
11572;SDS011;5842;52.426;4.886;2023-08-06T08:43:05;10.52;;;7.82;;
11572;SDS011;5842;52.426;4.886;2023-08-06T08:45:39;10.55;;;7.65;;
11572;SDS011;5842;52.426;4.886;2023-08-06T08:48:16;10.52;;;7.55;;
11572;SDS011;5842;52.426;4.886;2023-08-06T08:50:50;10.80;;;6.80;;
11572;SDS011;5842;52.426;4.886;2023-08-06T08:53:26;10.57;;;6.75;;
11572;SDS011;5842;52.426;4.886;2023-08-06T08:55:58;9.95;;;6.82;;
11572;SDS011;5842;52.426;4.886;2023-08-06T08:58:31;14.27;;;7.30;;
11572;SDS011;5842;52.426;4.886;2023-08-06T09:01:03;10.23;;;6.50;;
11572;SDS011;5842;52.426;4.886;2023-08-06T09:03:36;10.17;;;6.03;;
11572;SDS011;5842;52.426;4.886;2023-08-06T09:06:09;9.60;;;6.43;;
11572;SDS011;5842;52.426;4.886;2023-08-06T09:08:50;10.25;;;6.45;;
11572;SDS011;5842;52.426;4.886;2023-08-06T09:11:23;9.13;;;6.05;;
11572;SDS011;5842;52.426;4.886;2023-08-06T09:24:03;9.18;;;4.93;;
11572;SDS011;5842;52.426;4.886;2023-08-06T09:29:10;7.13;;;4.72;;
11572;SDS011;5842;52.426;4.886;2023-08-06T09:31:44;6.83;;;4.40;;
11572;SDS011;5842;52.426;4.886;2023-08-06T09:34:16;8.95;;;4.50;;
11572;SDS011;5842;52.426;4.886;2023-08-06T09:36:51;8.90;;;6.07;;
11572;SDS011;5842;52.426;4.886;2023-08-06T09:39:30;9.45;;;5.70;;
11572;SDS011;5842;52.426;4.886;2023-08-06T09:42:03;7.18;;;4.03;;
11572;SDS011;5842;52.426;4.886;2023-08-06T09:44:36;6.55;;;3.67;;
11572;SDS011;5842;52.426;4.886;2023-08-06T09:47:09;4.72;;;2.90;;
11572;SDS011;5842;52.426;4.886;2023-08-06T09:49:42;6.72;;;3.50;;
11572;SDS011;5842;52.426;4.886;2023-08-06T09:52:14;6.68;;;3.10;;
11572;SDS011;5842;52.426;4.886;2023-08-06T09:54:51;4.80;;;2.80;;
11572;SDS011;5842;52.426;4.886;2023-08-06T09:57:24;6.35;;;2.97;;
11572;SDS011;5842;52.426;4.886;2023-08-06T09:59:54;5.72;;;2.70;;
11572;SDS011;5842;52.426;4.886;2023-08-06T10:02:27;5.38;;;2.63;;
11572;SDS011;5842;52.426;4.886;2023-08-06T10:17:35;4.40;;;2.40;;
11572;SDS011;5842;52.426;4.886;2023-08-06T10:22:42;5.38;;;2.80;;
11572;SDS011;5842;52.426;4.886;2023-08-06T10:25:17;5.25;;;3.05;;
11572;SDS011;5842;52.426;4.886;2023-08-06T10:32:57;8.25;;;4.00;;
11572;SDS011;5842;52.426;4.886;2023-08-06T10:40:32;66.10;;;58.37;;
11572;SDS011;5842;52.426;4.886;2023-08-06T10:43:06;22.33;;;20.03;;
11572;SDS011;5842;52.426;4.886;2023-08-06T10:45:38;4.80;;;3.35;;
11572;SDS011;5842;52.426;4.886;2023-08-06T10:48:33;5.50;;;2.60;;
11572;SDS011;5842;52.426;4.886;2023-08-06T10:53:38;13.87;;;12.13;;
11572;SDS011;5842;52.426;4.886;2023-08-06T10:56:14;4.43;;;2.28;;
11572;SDS011;5842;52.426;4.886;2023-08-06T10:58:49;4.68;;;2.10;;
11572;SDS011;5842;52.426;4.886;2023-08-06T11:01:22;5.65;;;2.25;;
11572;SDS011;5842;52.426;4.886;2023-08-06T11:04:00;3.30;;;2.13;;
11572;SDS011;5842;52.426;4.886;2023-08-06T11:06:35;4.47;;;2.10;;
11572;SDS011;5842;52.426;4.886;2023-08-06T11:09:13;4.82;;;2.17;;
11572;SDS011;5842;52.426;4.886;2023-08-06T11:11:56;5.28;;;2.78;;
11572;SDS011;5842;52.426;4.886;2023-08-06T11:14:30;5.10;;;3.40;;
11572;SDS011;5842;52.426;4.886;2023-08-06T11:17:05;4.45;;;2.42;;
11572;SDS011;5842;52.426;4.886;2023-08-06T11:19:39;3.65;;;2.20;;
11572;SDS011;5842;52.426;4.886;2023-08-06T11:22:13;6.20;;;2.35;;
11572;SDS011;5842;52.426;4.886;2023-08-06T11:24:47;4.15;;;2.20;;
11572;SDS011;5842;52.426;4.886;2023-08-06T11:27:20;4.00;;;2.50;;
11572;SDS011;5842;52.426;4.886;2023-08-06T11:29:53;4.25;;;2.60;;
11572;SDS011;5842;52.426;4.886;2023-08-06T11:32:29;4.93;;;3.03;;
11572;SDS011;5842;52.426;4.886;2023-08-06T11:35:12;4.47;;;2.90;;
11572;SDS011;5842;52.426;4.886;2023-08-06T11:37:46;2.92;;;2.53;;
11572;SDS011;5842;52.426;4.886;2023-08-06T11:40:21;4.15;;;2.20;;
11572;SDS011;5842;52.426;4.886;2023-08-06T11:42:54;4.05;;;2.20;;
11572;SDS011;5842;52.426;4.886;2023-08-06T11:45:28;3.60;;;2.50;;
11572;SDS011;5842;52.426;4.886;2023-08-06T11:50:36;8.48;;;7.68;;
11572;SDS011;5842;52.426;4.886;2023-08-06T11:55:42;5.30;;;4.70;;
11572;SDS011;5842;52.426;4.886;2023-08-06T12:00:55;4.10;;;2.20;;
11572;SDS011;5842;52.426;4.886;2023-08-06T12:03:29;4.00;;;2.15;;
11572;SDS011;5842;52.426;4.886;2023-08-06T12:06:07;3.40;;;2.10;;
11572;SDS011;5842;52.426;4.886;2023-08-06T12:08:42;4.28;;;2.00;;
11572;SDS011;5842;52.426;4.886;2023-08-06T12:14:24;3.65;;;2.08;;
11572;SDS011;5842;52.426;4.886;2023-08-06T12:16:58;3.60;;;2.00;;
11572;SDS011;5842;52.426;4.886;2023-08-06T12:19:34;3.28;;;2.17;;
11572;SDS011;5842;52.426;4.886;2023-08-06T12:22:11;3.23;;;1.70;;
11572;SDS011;5842;52.426;4.886;2023-08-06T12:24:45;2.20;;;1.83;;
11572;SDS011;5842;52.426;4.886;2023-08-06T12:27:18;3.88;;;2.40;;
11572;SDS011;5842;52.426;4.886;2023-08-06T12:29:53;3.45;;;2.17;;
11572;SDS011;5842;52.426;4.886;2023-08-06T12:32:27;2.90;;;2.00;;
11572;SDS011;5842;52.426;4.886;2023-08-06T12:35:05;3.92;;;2.42;;
11572;SDS011;5842;52.426;4.886;2023-08-06T12:37:44;4.40;;;2.80;;
11572;SDS011;5842;52.426;4.886;2023-08-06T12:40:24;2.77;;;2.20;;
11572;SDS011;5842;52.426;4.886;2023-08-06T12:42:58;3.47;;;2.10;;
11572;SDS011;5842;52.426;4.886;2023-08-06T12:45:32;3.83;;;2.05;;
11572;SDS011;5842;52.426;4.886;2023-08-06T12:48:06;3.27;;;1.90;;
11572;SDS011;5842;52.426;4.886;2023-08-06T12:50:39;3.58;;;2.10;;
11572;SDS011;5842;52.426;4.886;2023-08-06T12:53:15;3.33;;;2.10;;
11572;SDS011;5842;52.426;4.886;2023-08-06T12:55:48;3.37;;;2.13;;
11572;SDS011;5842;52.426;4.886;2023-08-06T12:58:26;3.17;;;2.25;;
11572;SDS011;5842;52.426;4.886;2023-08-06T13:01:03;2.83;;;1.80;;
11572;SDS011;5842;52.426;4.886;2023-08-06T13:03:36;3.30;;;2.10;;
11572;SDS011;5842;52.426;4.886;2023-08-06T13:06:12;3.53;;;2.00;;
11572;SDS011;5842;52.426;4.886;2023-08-06T13:08:52;2.70;;;2.10;;
11572;SDS011;5842;52.426;4.886;2023-08-06T13:11:25;2.70;;;1.80;;
11572;SDS011;5842;52.426;4.886;2023-08-06T13:14:03;3.22;;;2.10;;
11572;SDS011;5842;52.426;4.886;2023-08-06T13:16:40;3.37;;;2.10;;
11572;SDS011;5842;52.426;4.886;2023-08-06T13:19:16;3.35;;;1.95;;
11572;SDS011;5842;52.426;4.886;2023-08-06T13:21:58;2.22;;;1.80;;
11572;SDS011;5842;52.426;4.886;2023-08-06T13:24:34;3.00;;;1.80;;
11572;SDS011;5842;52.426;4.886;2023-08-06T13:27:06;2.22;;;1.90;;
11572;SDS011;5842;52.426;4.886;2023-08-06T13:29:39;2.42;;;2.00;;
11572;SDS011;5842;52.426;4.886;2023-08-06T13:32:11;4.15;;;2.13;;
11572;SDS011;5842;52.426;4.886;2023-08-06T13:37:15;2.60;;;1.75;;
11572;SDS011;5842;52.426;4.886;2023-08-06T13:39:51;3.58;;;1.77;;
11572;SDS011;5842;52.426;4.886;2023-08-06T13:42:25;3.35;;;1.70;;
11572;SDS011;5842;52.426;4.886;2023-08-06T13:45:00;2.47;;;1.60;;
11572;SDS011;5842;52.426;4.886;2023-08-06T13:47:32;2.17;;;1.70;;
11572;SDS011;5842;52.426;4.886;2023-08-06T13:50:05;2.10;;;1.20;;
11572;SDS011;5842;52.426;4.886;2023-08-06T13:52:37;3.38;;;1.58;;
11572;SDS011;5842;52.426;4.886;2023-08-06T13:55:13;3.25;;;1.35;;
11572;SDS011;5842;52.426;4.886;2023-08-06T13:57:46;4.68;;;1.55;;
11572;SDS011;5842;52.426;4.886;2023-08-06T14:00:19;4.83;;;1.70;;
11572;SDS011;5842;52.426;4.886;2023-08-06T14:02:53;5.95;;;1.88;;
11572;SDS011;5842;52.426;4.886;2023-08-06T14:05:26;6.10;;;1.83;;
11572;SDS011;5842;52.426;4.886;2023-08-06T14:08:03;6.70;;;1.60;;
11572;SDS011;5842;52.426;4.886;2023-08-06T14:10:40;7.32;;;2.13;;
11572;SDS011;5842;52.426;4.886;2023-08-06T14:13:15;6.10;;;2.17;;
11572;SDS011;5842;52.426;4.886;2023-08-06T14:15:48;7.20;;;1.83;;
11572;SDS011;5842;52.426;4.886;2023-08-06T14:18:21;6.13;;;1.60;;
11572;SDS011;5842;52.426;4.886;2023-08-06T14:20:54;5.00;;;1.60;;
11572;SDS011;5842;52.426;4.886;2023-08-06T14:23:27;5.85;;;1.60;;
11572;SDS011;5842;52.426;4.886;2023-08-06T14:26:02;4.87;;;1.47;;
11572;SDS011;5842;52.426;4.886;2023-08-06T14:28:35;8.27;;;1.55;;
11572;SDS011;5842;52.426;4.886;2023-08-06T14:31:08;6.10;;;1.60;;
11572;SDS011;5842;52.426;4.886;2023-08-06T14:33:41;6.32;;;1.50;;
11572;SDS011;5842;52.426;4.886;2023-08-06T14:36:14;8.87;;;1.70;;
11572;SDS011;5842;52.426;4.886;2023-08-06T14:38:47;5.57;;;1.60;;
11572;SDS011;5842;52.426;4.886;2023-08-06T14:41:23;7.97;;;2.13;;
11572;SDS011;5842;52.426;4.886;2023-08-06T14:43:56;5.80;;;1.80;;
11572;SDS011;5842;52.426;4.886;2023-08-06T14:46:32;5.38;;;1.42;;
11572;SDS011;5842;52.426;4.886;2023-08-06T14:49:05;6.82;;;1.60;;
11572;SDS011;5842;52.426;4.886;2023-08-06T14:51:38;4.43;;;1.30;;
11572;SDS011;5842;52.426;4.886;2023-08-06T14:54:10;6.83;;;1.50;;
11572;SDS011;5842;52.426;4.886;2023-08-06T14:56:46;5.60;;;1.60;;
11572;SDS011;5842;52.426;4.886;2023-08-06T14:59:19;6.13;;;1.55;;
11572;SDS011;5842;52.426;4.886;2023-08-06T15:01:56;6.00;;;1.50;;
11572;SDS011;5842;52.426;4.886;2023-08-06T15:04:29;7.40;;;1.50;;
11572;SDS011;5842;52.426;4.886;2023-08-06T15:07:01;4.18;;;1.48;;
11572;SDS011;5842;52.426;4.886;2023-08-06T15:09:34;6.60;;;1.65;;
11572;SDS011;5842;52.426;4.886;2023-08-06T15:12:09;5.65;;;1.63;;
11572;SDS011;5842;52.426;4.886;2023-08-06T15:14:44;5.20;;;1.50;;
11572;SDS011;5842;52.426;4.886;2023-08-06T15:17:20;4.57;;;1.30;;
11572;SDS011;5842;52.426;4.886;2023-08-06T15:19:53;6.97;;;1.50;;
11572;SDS011;5842;52.426;4.886;2023-08-06T15:22:26;4.50;;;1.20;;
11572;SDS011;5842;52.426;4.886;2023-08-06T15:25:00;7.37;;;1.60;;
11572;SDS011;5842;52.426;4.886;2023-08-06T15:27:37;6.20;;;1.52;;
11572;SDS011;5842;52.426;4.886;2023-08-06T15:30:10;5.78;;;1.65;;
11572;SDS011;5842;52.426;4.886;2023-08-06T15:32:42;5.70;;;1.50;;
11572;SDS011;5842;52.426;4.886;2023-08-06T15:35:15;7.90;;;2.23;;
11572;SDS011;5842;52.426;4.886;2023-08-06T15:37:48;7.30;;;2.00;;
11572;SDS011;5842;52.426;4.886;2023-08-06T15:40:20;8.65;;;2.00;;
11572;SDS011;5842;52.426;4.886;2023-08-06T15:42:57;8.43;;;2.10;;
11572;SDS011;5842;52.426;4.886;2023-08-06T15:45:29;6.07;;;1.70;;
11572;SDS011;5842;52.426;4.886;2023-08-06T15:48:07;6.75;;;1.63;;
11572;SDS011;5842;52.426;4.886;2023-08-06T15:50:40;8.00;;;1.85;;
11572;SDS011;5842;52.426;4.886;2023-08-06T15:53:12;6.53;;;1.80;;
11572;SDS011;5842;52.426;4.886;2023-08-06T15:55:46;3.87;;;1.50;;
11572;SDS011;5842;52.426;4.886;2023-08-06T15:58:24;6.63;;;1.40;;
11572;SDS011;5842;52.426;4.886;2023-08-06T16:00:57;6.28;;;1.77;;
11572;SDS011;5842;52.426;4.886;2023-08-06T16:03:30;9.15;;;2.05;;
11572;SDS011;5842;52.426;4.886;2023-08-06T16:06:08;6.80;;;1.70;;
11572;SDS011;5842;52.426;4.886;2023-08-06T16:08:42;5.90;;;1.83;;
11572;SDS011;5842;52.426;4.886;2023-08-06T16:11:16;7.53;;;1.85;;
11572;SDS011;5842;52.426;4.886;2023-08-06T16:13:52;8.77;;;1.77;;
11572;SDS011;5842;52.426;4.886;2023-08-06T16:16:26;2.50;;;0.90;;
11572;SDS011;5842;52.426;4.886;2023-08-06T16:19:01;5.35;;;1.50;;
11572;SDS011;5842;52.426;4.886;2023-08-06T16:21:36;5.65;;;1.17;;
11572;SDS011;5842;52.426;4.886;2023-08-06T16:24:13;4.65;;;1.30;;
11572;SDS011;5842;52.426;4.886;2023-08-06T16:26:46;6.43;;;1.48;;
11572;SDS011;5842;52.426;4.886;2023-08-06T16:29:23;6.85;;;1.58;;
11572;SDS011;5842;52.426;4.886;2023-08-06T16:31:56;6.22;;;1.70;;
11572;SDS011;5842;52.426;4.886;2023-08-06T16:34:31;6.75;;;1.80;;
11572;SDS011;5842;52.426;4.886;2023-08-06T16:37:05;7.00;;;2.08;;
11572;SDS011;5842;52.426;4.886;2023-08-06T16:39:38;9.40;;;2.25;;
11572;SDS011;5842;52.426;4.886;2023-08-06T16:42:12;10.70;;;2.58;;
11572;SDS011;5842;52.426;4.886;2023-08-06T16:44:49;8.25;;;2.63;;
11572;SDS011;5842;52.426;4.886;2023-08-06T16:47:21;9.07;;;2.30;;
11572;SDS011;5842;52.426;4.886;2023-08-06T16:49:55;7.90;;;1.97;;
11572;SDS011;5842;52.426;4.886;2023-08-06T16:52:29;8.73;;;2.30;;
11572;SDS011;5842;52.426;4.886;2023-08-06T16:55:03;10.07;;;2.22;;
11572;SDS011;5842;52.426;4.886;2023-08-06T16:57:37;10.20;;;2.38;;
11572;SDS011;5842;52.426;4.886;2023-08-06T17:00:13;10.00;;;2.00;;
11572;SDS011;5842;52.426;4.886;2023-08-06T17:02:47;7.88;;;2.00;;
11572;SDS011;5842;52.426;4.886;2023-08-06T17:05:22;8.43;;;2.10;;
11572;SDS011;5842;52.426;4.886;2023-08-06T17:07:55;8.07;;;2.20;;
11572;SDS011;5842;52.426;4.886;2023-08-06T17:10:30;6.90;;;1.90;;